Time;durP1;ratioP1;P1;durP2;ratioP2;P2;SDS_P1;SDS_P2;PMS_P1;PMS_P2;Temp;Humidity;BMP_temperature;BMP_pressure;BME280_temperature;BME280_humidity;BME280_pressure;Samples;Min_cycle;Max_cycle;Signal;HPM_P1;HPM_P2
2023/09/20 00:02:01;;;;;;;8.30;1.77;;;;;;;;;;6173946;23;20395;-93
2023/09/20 00:04:29;;;;;;;2.30;1.50;;;;;;;;;;6178173;23;20383;-93
2023/09/20 00:06:58;;;;;;;2.20;1.70;;;;;;;;;;6202191;23;20375;-93
2023/09/20 00:09:24;;;;;;;1.80;1.30;;;;;;;;;;6174573;23;20684;-93
2023/09/20 00:11:50;;;;;;;2.17;1.63;;;;;;;;;;6178628;23;20382;-92
2023/09/20 00:14:16;;;;;;;3.53;1.40;;;;;;;;;;6208384;23;20683;-93
2023/09/20 00:16:42;;;;;;;4.80;2.07;;;;;;;;;;6207592;23;20513;-90
2023/09/20 00:19:09;;;;;;;3.50;1.67;;;;;;;;;;6207463;23;20363;-91
2023/09/20 00:21:35;;;;;;;1.90;1.50;;;;;;;;;;6207837;23;20401;-94
2023/09/20 00:24:04;;;;;;;2.07;1.57;;;;;;;;;;6205643;23;20398;-93
2023/09/20 00:26:30;;;;;;;1.73;1.33;;;;;;;;;;6205595;23;20418;-94
2023/09/20 00:31:44;;;;;;;2.90;1.40;;;;;;;;;;6243100;22;20540;-92
2023/09/20 00:34:10;;;;;;;5.47;1.87;;;;;;;;;;6205909;23;20417;-92
2023/09/20 00:36:36;;;;;;;1.60;1.47;;;;;;;;;;6229183;23;20717;-91
2023/09/20 00:39:02;;;;;;;1.67;1.40;;;;;;;;;;6205725;22;20397;-91
2023/09/20 00:41:28;;;;;;;3.13;1.50;;;;;;;;;;6207683;23;20377;-92
2023/09/20 00:43:56;;;;;;;2.13;1.67;;;;;;;;;;6228935;23;20366;-92
2023/09/20 00:46:22;;;;;;;3.33;1.50;;;;;;;;;;6203566;23;20374;-91
2023/09/20 00:48:54;;;;;;;1.60;1.37;;;;;;;;;;6203038;23;20489;-91
2023/09/20 00:51:21;;;;;;;1.83;1.63;;;;;;;;;;6206533;23;20398;-91
2023/09/20 00:53:47;;;;;;;2.20;1.80;;;;;;;;;;6203317;23;20378;-91
2023/09/20 00:56:14;;;;;;;3.10;2.07;;;;;;;;;;6206340;23;20422;-91
2023/09/20 00:58:40;;;;;;;1.80;1.60;;;;;;;;;;6256232;22;20382;-91
2023/09/20 01:01:06;;;;;;;3.40;1.80;;;;;;;;;;6208862;23;20394;-91
2023/09/20 01:03:35;;;;;;;3.13;2.13;;;;;;;;;;6205298;23;20382;-92
2023/09/20 01:06:09;;;;;;;1.60;1.40;;;;;;;;;;6205958;23;20416;-91
2023/09/20 01:08:35;;;;;;;2.13;1.37;;;;;;;;;;6207042;23;20366;-91
2023/09/20 01:11:01;;;;;;;2.03;1.77;;;;;;;;;;6204096;23;20378;-91
2023/09/20 01:13:27;;;;;;;2.40;1.50;;;;;;;;;;6230209;23;20370;-91
2023/09/20 01:15:53;;;;;;;1.50;1.20;;;;;;;;;;6207156;23;20532;-91
2023/09/20 01:18:19;;;;;;;2.03;1.43;;;;;;;;;;6229564;23;20362;-92
2023/09/20 01:20:45;;;;;;;2.53;1.57;;;;;;;;;;6207996;23;20386;-92
2023/09/20 01:23:11;;;;;;;4.67;1.73;;;;;;;;;;6204708;23;20386;-92
2023/09/20 01:25:39;;;;;;;3.57;2.00;;;;;;;;;;6207609;23;20434;-92
2023/09/20 01:28:06;;;;;;;6.00;2.03;;;;;;;;;;6205358;23;20362;-92
2023/09/20 01:30:33;;;;;;;2.70;1.73;;;;;;;;;;6205275;23;20408;-91
2023/09/20 01:33:08;;;;;;;2.70;1.40;;;;;;;;;;6205302;23;20398;-92
2023/09/20 01:35:35;;;;;;;1.50;1.37;;;;;;;;;;6215786;22;20480;-91
2023/09/20 01:38:11;;;;;;;2.20;1.37;;;;;;;;;;6204703;23;20765;-92
2023/09/20 01:40:39;;;;;;;4.10;2.57;;;;;;;;;;6209408;22;20369;-91
2023/09/20 01:43:06;;;;;;;5.67;2.00;;;;;;;;;;6205578;23;20707;-91
2023/09/20 01:45:34;;;;;;;2.67;1.30;;;;;;;;;;6233530;23;20375;-91
2023/09/20 01:48:01;;;;;;;1.20;1.10;;;;;;;;;;6170447;23;20365;-92
2023/09/20 01:50:28;;;;;;;2.93;1.50;;;;;;;;;;6147986;23;20404;-91
2023/09/20 01:52:56;;;;;;;2.27;2.07;;;;;;;;;;6171415;23;20368;-92
2023/09/20 01:55:25;;;;;;;3.43;1.90;;;;;;;;;;6147521;23;20431;-91
2023/09/20 01:58:06;;;;;;;2.90;1.73;;;;;;;;;;6149641;23;20367;-92
2023/09/20 02:00:40;;;;;;;1.80;1.70;;;;;;;;;;6145895;23;20380;-92
2023/09/20 02:03:08;;;;;;;4.17;2.30;;;;;;;;;;6146338;23;20408;-91
2023/09/20 02:05:36;;;;;;;2.33;1.50;;;;;;;;;;6171367;23;20739;-92
2023/09/20 02:08:02;;;;;;;1.93;1.40;;;;;;;;;;6145436;23;20395;-92
2023/09/20 02:10:28;;;;;;;2.13;1.93;;;;;;;;;;6161203;23;20452;-91
2023/09/20 02:12:55;;;;;;;1.70;1.60;;;;;;;;;;6231019;23;20386;-92
2023/09/20 02:15:21;;;;;;;1.70;1.30;;;;;;;;;;6231991;23;20448;-90
2023/09/20 02:17:47;;;;;;;2.60;1.60;;;;;;;;;;6235106;23;20386;-91
2023/09/20 02:20:19;;;;;;;3.10;1.30;;;;;;;;;;6229088;23;20396;-92
2023/09/20 02:22:45;;;;;;;6.00;1.77;;;;;;;;;;6233688;23;20381;-90
2023/09/20 02:25:11;;;;;;;1.43;1.33;;;;;;;;;;6230709;23;20485;-91
2023/09/20 02:27:38;;;;;;;1.70;1.50;;;;;;;;;;6233541;23;20390;-92
2023/09/20 02:30:05;;;;;;;2.70;2.07;;;;;;;;;;6229952;23;20382;-91
2023/09/20 02:32:31;;;;;;;1.60;1.33;;;;;;;;;;6230051;23;20398;-91
2023/09/20 02:34:59;;;;;;;1.60;1.10;;;;;;;;;;6229085;23;20366;-91
2023/09/20 02:37:25;;;;;;;5.70;2.00;;;;;;;;;;6231111;23;20374;-90
2023/09/20 02:39:51;;;;;;;3.70;2.00;;;;;;;;;;6233269;23;20690;-91
2023/09/20 02:42:22;;;;;;;1.47;1.20;;;;;;;;;;6235471;23;20433;-93
2023/09/20 02:44:51;;;;;;;3.63;1.77;;;;;;;;;;6230788;23;20350;-92
2023/09/20 02:47:24;;;;;;;2.70;1.43;;;;;;;;;;6232528;23;20385;-92
2023/09/20 02:49:50;;;;;;;2.53;1.90;;;;;;;;;;6207353;23;20374;-92
2023/09/20 02:52:18;;;;;;;2.80;2.10;;;;;;;;;;6232982;23;20695;-92
2023/09/20 02:54:45;;;;;;;2.00;1.30;;;;;;;;;;6233615;23;20385;-91
2023/09/20 02:57:11;;;;;;;2.80;1.87;;;;;;;;;;6233322;23;20425;-92
2023/09/20 02:59:40;;;;;;;2.27;1.60;;;;;;;;;;6201205;23;20398;-91
2023/09/20 03:02:10;;;;;;;1.63;1.53;;;;;;;;;;6200676;23;20382;-91
2023/09/20 03:04:37;;;;;;;4.30;1.43;;;;;;;;;;6200818;23;20379;-92
2023/09/20 03:07:04;;;;;;;3.20;2.00;;;;;;;;;;6201319;23;20383;-91
2023/09/20 03:09:35;;;;;;;2.00;1.67;;;;;;;;;;6200788;23;20385;-92
2023/09/20 03:12:41;;;;;;;;;;;;;;;;;;;;;
2023/09/20 03:15:04;;;;;;;2.03;1.37;;;;;;;;;;6221312;23;20386;-91
2023/09/20 03:17:31;;;;;;;2.07;1.43;;;;;;;;;;6199733;23;20398;-91
2023/09/20 03:19:57;;;;;;;1.60;1.50;;;;;;;;;;6201327;23;20382;-91
2023/09/20 03:22:23;;;;;;;3.87;1.60;;;;;;;;;;6199082;23;20352;-92
2023/09/20 03:24:51;;;;;;;6.80;1.77;;;;;;;;;;6201703;23;20863;-91
2023/09/20 03:27:17;;;;;;;2.20;1.80;;;;;;;;;;6196093;23;20375;-92
2023/09/20 03:29:43;;;;;;;1.50;1.40;;;;;;;;;;6204343;23;20861;-91
2023/09/20 03:32:09;;;;;;;2.50;1.53;;;;;;;;;;6229161;23;20432;-92
2023/09/20 03:34:35;;;;;;;1.87;1.30;;;;;;;;;;6231302;23;20877;-92
2023/09/20 03:37:01;;;;;;;5.20;1.40;;;;;;;;;;6229564;23;20444;-92
2023/09/20 03:39:27;;;;;;;1.90;1.70;;;;;;;;;;6232809;23;20389;-92
2023/09/20 03:41:54;;;;;;;3.20;1.67;;;;;;;;;;6230227;23;20382;-91
2023/09/20 03:44:20;;;;;;;1.60;1.23;;;;;;;;;;6240342;23;20392;-92
2023/09/20 03:46:47;;;;;;;3.30;1.97;;;;;;;;;;6228408;23;20418;-91
2023/09/20 03:49:15;;;;;;;2.00;1.50;;;;;;;;;;6229695;23;20446;-92
2023/09/20 03:51:41;;;;;;;5.63;2.10;;;;;;;;;;6228086;23;20855;-92
2023/09/20 03:54:08;;;;;;;1.50;1.40;;;;;;;;;;6233642;23;20610;-92
2023/09/20 03:56:35;;;;;;;2.10;1.43;;;;;;;;;;6229069;23;20418;-92
2023/09/20 03:59:01;;;;;;;2.90;1.40;;;;;;;;;;6234201;23;20571;-92
2023/09/20 04:01:28;;;;;;;2.63;1.77;;;;;;;;;;6228787;23;20448;-92
2023/09/20 04:03:54;;;;;;;2.10;1.63;;;;;;;;;;6230789;23;20786;-92
2023/09/20 04:06:20;;;;;;;2.10;1.90;;;;;;;;;;6229109;23;20405;-92
2023/09/20 04:08:46;;;;;;;1.60;1.50;;;;;;;;;;6231351;23;20845;-91
2023/09/20 04:11:12;;;;;;;3.10;1.60;;;;;;;;;;6231512;23;20394;-91
2023/09/20 04:13:38;;;;;;;2.30;1.90;;;;;;;;;;6259309;23;20382;-92
2023/09/20 04:16:04;;;;;;;3.00;1.90;;;;;;;;;;6198850;23;20414;-92
2023/09/20 04:18:54;;;;;;;2.90;1.77;;;;;;;;;;6202967;23;20371;-92
2023/09/20 04:21:21;;;;;;;4.27;1.70;;;;;;;;;;6199965;23;20355;-92
2023/09/20 04:23:48;;;;;;;2.20;1.97;;;;;;;;;;6200662;23;20376;-93
2023/09/20 04:26:14;;;;;;;2.33;1.87;;;;;;;;;;6177309;23;20364;-92
2023/09/20 04:28:40;;;;;;;5.30;1.43;;;;;;;;;;6173830;23;20391;-91
2023/09/20 04:31:06;;;;;;;2.30;1.70;;;;;;;;;;6170829;23;20399;-92
2023/09/20 04:33:33;;;;;;;2.80;2.00;;;;;;;;;;6168589;23;20391;-92
2023/09/20 04:36:00;;;;;;;2.13;1.60;;;;;;;;;;6170943;23;20424;-92
2023/09/20 04:38:27;;;;;;;2.60;1.83;;;;;;;;;;6169901;23;20459;-93
2023/09/20 04:40:56;;;;;;;2.40;1.60;;;;;;;;;;6174454;23;20468;-92
2023/09/20 04:43:23;;;;;;;1.70;1.60;;;;;;;;;;6171762;23;20384;-92
2023/09/20 04:45:49;;;;;;;2.40;1.57;;;;;;;;;;6171834;23;20791;-92
2023/09/20 04:48:15;;;;;;;1.90;1.80;;;;;;;;;;6170441;23;20380;-92
2023/09/20 04:56:02;;;;;;;2.60;1.40;;;;;;;;;;6255741;22;20484;-91
2023/09/20 04:58:30;;;;;;;2.20;1.90;;;;;;;;;;6261994;23;20369;-91
2023/09/20 05:01:02;;;;;;;2.10;1.50;;;;;;;;;;6207298;23;20402;-91
2023/09/20 05:03:29;;;;;;;2.27;1.97;;;;;;;;;;6238310;23;20363;-93
2023/09/20 05:05:55;;;;;;;3.03;1.90;;;;;;;;;;6208617;23;20400;-91
2023/09/20 05:08:21;;;;;;;3.53;1.97;;;;;;;;;;6210218;23;20457;-91
2023/09/20 05:10:47;;;;;;;2.00;1.50;;;;;;;;;;6234523;23;20368;-92
2023/09/20 05:13:13;;;;;;;1.70;1.33;;;;;;;;;;6208641;23;20459;-92
2023/09/20 05:15:39;;;;;;;1.90;1.23;;;;;;;;;;6207742;23;20422;-92
2023/09/20 05:18:06;;;;;;;1.93;1.43;;;;;;;;;;6208427;23;20393;-94
2023/09/20 05:20:32;;;;;;;1.90;1.40;;;;;;;;;;6208911;23;20439;-92
2023/09/20 05:22:59;;;;;;;3.97;1.70;;;;;;;;;;6188739;23;21027;-91
2023/09/20 05:25:26;;;;;;;2.50;1.80;;;;;;;;;;6209157;23;20389;-92
2023/09/20 05:27:54;;;;;;;2.80;1.70;;;;;;;;;;6211075;23;20377;-91
2023/09/20 05:30:21;;;;;;;3.80;1.80;;;;;;;;;;6236984;23;20401;-91
2023/09/20 05:32:51;;;;;;;1.90;1.80;;;;;;;;;;6207376;23;20445;-90
2023/09/20 05:35:18;;;;;;;3.77;2.10;;;;;;;;;;6240556;23;20385;-91
2023/09/20 05:37:44;;;;;;;2.03;1.83;;;;;;;;;;6207341;23;20386;-91
2023/09/20 05:40:17;;;;;;;4.47;2.17;;;;;;;;;;6208494;23;20382;-91
2023/09/20 05:42:42;;;;;;;2.40;2.10;;;;;;;;;;6206108;23;20417;-91
2023/09/20 05:45:09;;;;;;;2.63;2.43;;;;;;;;;;6207831;22;20433;-91
2023/09/20 05:47:35;;;;;;;1.70;1.23;;;;;;;;;;6205456;23;20489;-91
2023/09/20 05:50:01;;;;;;;2.80;1.33;;;;;;;;;;6207162;23;20386;-92
2023/09/20 05:52:27;;;;;;;2.23;1.87;;;;;;;;;;6230624;23;20423;-91
2023/09/20 05:54:55;;;;;;;2.50;2.17;;;;;;;;;;6237874;22;20369;-90
2023/09/20 05:57:22;;;;;;;3.30;1.73;;;;;;;;;;6206100;23;20460;-94
2023/09/20 05:59:49;;;;;;;1.50;1.40;;;;;;;;;;6208544;23;20911;-93
2023/09/20 06:02:15;;;;;;;1.97;1.30;;;;;;;;;;6207504;23;20390;-94
2023/09/20 06:04:41;;;;;;;2.87;1.93;;;;;;;;;;6206078;23;20442;-93
2023/09/20 06:07:07;;;;;;;2.20;1.37;;;;;;;;;;6175251;23;20395;-92
2023/09/20 06:09:33;;;;;;;2.10;1.50;;;;;;;;;;6176401;23;20394;-91
2023/09/20 06:12:03;;;;;;;4.47;1.80;;;;;;;;;;6175933;23;20391;-92
2023/09/20 06:14:29;;;;;;;1.83;1.40;;;;;;;;;;6182614;23;20397;-91
2023/09/20 06:16:55;;;;;;;2.60;1.83;;;;;;;;;;6178142;23;20445;-93
2023/09/20 06:19:29;;;;;;;3.20;2.00;;;;;;;;;;6178690;23;20415;-95
2023/09/20 06:21:55;;;;;;;4.67;1.60;;;;;;;;;;6226703;23;20355;-92
2023/09/20 06:24:21;;;;;;;3.07;1.70;;;;;;;;;;6177334;23;20413;-92
2023/09/20 06:26:47;;;;;;;2.00;1.60;;;;;;;;;;6176848;23;20378;-93
2023/09/20 06:31:49;;;;;;;3.70;2.23;;;;;;;;;;6252630;22;20467;-93
2023/09/20 06:34:17;;;;;;;1.83;1.50;;;;;;;;;;6211472;23;20374;-93
2023/09/20 06:36:43;;;;;;;2.10;1.53;;;;;;;;;;6233616;23;20421;-93
2023/09/20 06:39:09;;;;;;;2.93;1.67;;;;;;;;;;6208830;22;20366;-92
2023/09/20 06:41:37;;;;;;;1.93;1.40;;;;;;;;;;6176205;23;20384;-93
2023/09/20 06:44:03;;;;;;;3.33;1.50;;;;;;;;;;6148311;23;20398;-92
2023/09/20 06:46:30;;;;;;;2.93;1.67;;;;;;;;;;6240678;22;20519;-94
2023/09/20 06:48:57;;;;;;;2.00;1.33;;;;;;;;;;6238129;22;20894;-93
2023/09/20 06:51:24;;;;;;;2.43;1.67;;;;;;;;;;6265093;22;20704;-94
2023/09/20 06:53:50;;;;;;;2.10;1.13;;;;;;;;;;6244045;22;20393;-93
2023/09/20 06:56:17;;;;;;;2.40;1.47;;;;;;;;;;6265900;22;20416;-93
2023/09/20 07:01:35;;;;;;;3.30;1.43;;;;;;;;;;6229165;22;20509;-94
2023/09/20 07:04:02;;;;;;;1.50;1.40;;;;;;;;;;6210716;23;20390;-94
2023/09/20 07:06:31;;;;;;;1.87;1.40;;;;;;;;;;6211832;23;20431;-94
2023/09/20 07:08:57;;;;;;;2.63;1.67;;;;;;;;;;6208339;23;20401;-95
2023/09/20 07:11:24;;;;;;;1.83;1.60;;;;;;;;;;6207209;23;20917;-94
2023/09/20 07:13:51;;;;;;;1.40;1.10;;;;;;;;;;6207194;23;20378;-95
2023/09/20 07:16:17;;;;;;;2.20;1.53;;;;;;;;;;6234318;23;20421;-95
2023/09/20 07:18:44;;;;;;;3.77;1.63;;;;;;;;;;6205494;23;20455;-95
2023/09/20 07:21:10;;;;;;;5.10;2.30;;;;;;;;;;6204663;23;21048;-94
2023/09/20 07:23:37;;;;;;;1.57;1.43;;;;;;;;;;6227901;23;20725;-96
2023/09/20 07:26:03;;;;;;;3.30;1.53;;;;;;;;;;6203719;23;20727;-95
2023/09/20 07:28:31;;;;;;;5.93;4.33;;;;;;;;;;6203926;23;20398;-93
2023/09/20 07:30:57;;;;;;;2.53;1.90;;;;;;;;;;6201236;22;20479;-90
2023/09/20 07:33:29;;;;;;;4.97;1.80;;;;;;;;;;6234910;22;20417;-91
2023/09/20 07:38:32;;;;;;;3.30;1.83;;;;;;;;;;6256681;22;20452;-92
2023/09/20 07:41:17;;;;;;;1.50;1.40;;;;;;;;;;6207373;23;20385;-92
2023/09/20 07:43:47;;;;;;;4.00;2.00;;;;;;;;;;6209676;23;20385;-92
2023/09/20 07:46:13;;;;;;;2.90;2.10;;;;;;;;;;6208724;23;20386;-92
2023/09/20 07:48:50;;;;;;;5.07;2.10;;;;;;;;;;6231952;23;20378;-93
2023/09/20 07:51:19;;;;;;;4.83;1.50;;;;;;;;;;6210453;23;20354;-92
2023/09/20 07:53:49;;;;;;;2.63;2.17;;;;;;;;;;6205079;23;20408;-91
2023/09/20 07:56:15;;;;;;;1.60;1.50;;;;;;;;;;6234969;23;20689;-94
2023/09/20 07:58:41;;;;;;;2.20;1.40;;;;;;;;;;6205673;23;20389;-94
2023/09/20 08:01:40;;;;;;;2.37;1.77;;;;;;;;;;6207867;23;20402;-92
2023/09/20 08:03:59;;;;;;;5.17;1.37;;;;;;;;;;6162855;23;20381;-91
2023/09/20 08:06:26;;;;;;;1.87;1.63;;;;;;;;;;6125550;23;20392;-92
2023/09/20 08:08:53;;;;;;;1.97;1.60;;;;;;;;;;6140133;23;20381;-93
2023/09/20 08:11:19;;;;;;;2.40;1.60;;;;;;;;;;6139827;23;20381;-92
2023/09/20 08:13:45;;;;;;;4.17;1.80;;;;;;;;;;6115267;23;20397;-93
2023/09/20 08:16:12;;;;;;;1.73;1.43;;;;;;;;;;6115705;23;20420;-92
2023/09/20 08:21:25;;;;;;;2.90;1.70;;;;;;;;;;6145325;23;20900;-92
2023/09/20 08:59:53;;;;;;;2.20;1.60;;;;;;;;;;6232047;23;20825;-90
2023/09/20 09:02:19;;;;;;;2.93;1.47;;;;;;;;;;6206010;23;20393;-90
2023/09/20 09:04:45;;;;;;;3.43;1.90;;;;;;;;;;6205224;23;20370;-89
2023/09/20 09:07:12;;;;;;;2.73;2.27;;;;;;;;;;6201489;23;20383;-89
2023/09/20 09:09:38;;;;;;;3.73;1.20;;;;;;;;;;6203597;23;20425;-90
2023/09/20 09:12:05;;;;;;;3.77;1.50;;;;;;;;;;6204399;23;20371;-90
2023/09/20 09:14:31;;;;;;;2.57;1.53;;;;;;;;;;6209126;23;20500;-90
2023/09/20 09:17:01;;;;;;;2.03;1.33;;;;;;;;;;6202642;23;20765;-89
2023/09/20 09:19:28;;;;;;;2.03;1.60;;;;;;;;;;6204011;23;20378;-90
2023/09/20 09:21:54;;;;;;;4.10;1.50;;;;;;;;;;6202435;23;20410;-89
2023/09/20 09:24:19;;;;;;;2.30;1.90;;;;;;;;;;6205137;23;20378;-89
2023/09/20 09:26:46;;;;;;;2.20;1.60;;;;;;;;;;6201813;23;20458;-89
2023/09/20 09:29:18;;;;;;;2.63;1.50;;;;;;;;;;6204445;23;20378;-90
2023/09/20 09:31:51;;;;;;;2.57;1.63;;;;;;;;;;6201702;23;20382;-90
2023/09/20 09:34:20;;;;;;;3.10;2.00;;;;;;;;;;6206164;23;20382;-89
2023/09/20 09:36:46;;;;;;;4.47;1.80;;;;;;;;;;6202574;23;20438;-91
2023/09/20 09:39:15;;;;;;;4.47;2.20;;;;;;;;;;6201345;22;20424;-90
2023/09/20 09:41:42;;;;;;;2.83;1.53;;;;;;;;;;6200920;23;20418;-87
2023/09/20 09:44:08;;;;;;;3.60;2.07;;;;;;;;;;6205315;23;20390;-88
2023/09/20 09:46:34;;;;;;;2.17;1.43;;;;;;;;;;6201444;23;20389;-89
2023/09/20 09:49:04;;;;;;;2.70;1.80;;;;;;;;;;6207571;22;20516;-88
2023/09/20 09:51:32;;;;;;;2.50;1.43;;;;;;;;;;6226126;23;20378;-89
2023/09/20 09:53:58;;;;;;;7.43;2.00;;;;;;;;;;6205079;23;20362;-92
2023/09/20 09:56:25;;;;;;;4.23;1.73;;;;;;;;;;6230096;23;20517;-92
2023/09/20 09:58:51;;;;;;;3.13;1.53;;;;;;;;;;6205678;22;20409;-91
2023/09/20 10:01:17;;;;;;;2.90;1.83;;;;;;;;;;6203462;23;20405;-92
2023/09/20 10:03:45;;;;;;;2.63;1.60;;;;;;;;;;6205505;23;20366;-92
2023/09/20 10:06:12;;;;;;;2.73;1.47;;;;;;;;;;6205484;23;20405;-93
2023/09/20 10:08:42;;;;;;;4.13;1.60;;;;;;;;;;6203025;23;20383;-93
2023/09/20 10:11:08;;;;;;;3.13;1.80;;;;;;;;;;6202391;23;20409;-92
2023/09/20 10:13:38;;;;;;;3.13;1.43;;;;;;;;;;6203576;23;20452;-91
2023/09/20 10:16:05;;;;;;;2.93;1.50;;;;;;;;;;6205892;23;20512;-94
2023/09/20 10:21:14;;;;;;;4.63;2.20;;;;;;;;;;6237518;23;20445;-93
2023/09/20 10:23:42;;;;;;;3.80;1.60;;;;;;;;;;6234151;23;20445;-93
2023/09/20 10:26:15;;;;;;;3.90;2.17;;;;;;;;;;6233310;23;20373;-94
2023/09/20 10:28:42;;;;;;;3.23;1.90;;;;;;;;;;6209356;23;20382;-92
2023/09/20 10:31:14;;;;;;;3.97;2.10;;;;;;;;;;6207763;23;20374;-95
2023/09/20 10:33:58;;;;;;;3.33;2.13;;;;;;;;;;6208353;23;20792;-94
2023/09/20 10:36:25;;;;;;;2.83;1.73;;;;;;;;;;6231989;23;20424;-94
2023/09/20 10:39:11;;;;;;;2.10;1.70;;;;;;;;;;6208485;23;20461;-94
2023/09/20 10:41:40;;;;;;;2.83;2.07;;;;;;;;;;6230242;23;20377;-95
2023/09/20 10:44:06;;;;;;;3.70;2.10;;;;;;;;;;6209396;23;20393;-94
2023/09/20 10:46:35;;;;;;;2.67;1.77;;;;;;;;;;6203680;23;20375;-93
2023/09/20 10:49:02;;;;;;;3.80;1.90;;;;;;;;;;6206253;23;20390;-94
2023/09/20 10:51:48;;;;;;;3.90;2.00;;;;;;;;;;6205539;23;20381;-94
2023/09/20 10:56:53;;;;;;;3.20;2.50;;;;;;;;;;6250349;22;20496;-95
2023/09/20 11:01:58;;;;;;;4.10;2.00;;;;;;;;;;6180326;23;20518;-94
2023/09/20 11:04:31;;;;;;;3.60;2.10;;;;;;;;;;6148775;23;20385;-95
2023/09/20 11:07:14;;;;;;;4.13;2.00;;;;;;;;;;6165580;23;20389;-94
2023/09/20 11:09:42;;;;;;;3.20;2.03;;;;;;;;;;6143709;23;20377;-94
2023/09/20 11:12:09;;;;;;;3.37;2.70;;;;;;;;;;6143831;23;20424;-94
2023/09/20 11:14:37;;;;;;;3.80;2.90;;;;;;;;;;6143200;23;20385;-95
2023/09/20 11:17:03;;;;;;;2.53;1.97;;;;;;;;;;6142283;23;20420;-93
2023/09/20 11:19:29;;;;;;;4.00;2.30;;;;;;;;;;6145203;23;20392;-93
2023/09/20 11:21:56;;;;;;;3.07;2.60;;;;;;;;;;6134698;23;20413;-96
2023/09/20 11:26:59;;;;;;;3.10;2.13;;;;;;;;;;6211760;23;20434;-93
2023/09/20 11:29:26;;;;;;;2.63;1.83;;;;;;;;;;6201564;23;20415;-94
2023/09/20 11:31:55;;;;;;;2.90;2.27;;;;;;;;;;6203160;23;20387;-92
2023/09/20 11:34:25;;;;;;;3.30;2.77;;;;;;;;;;6206460;23;20422;-92
2023/09/20 11:36:55;;;;;;;3.80;2.43;;;;;;;;;;6205824;23;20445;-93
2023/09/20 11:39:29;;;;;;;4.00;2.40;;;;;;;;;;6205699;23;20430;-93
2023/09/20 11:42:00;;;;;;;4.07;2.30;;;;;;;;;;6202996;23;20393;-93
2023/09/20 11:44:29;;;;;;;2.80;1.73;;;;;;;;;;6207566;23;20379;-93
2023/09/20 11:46:57;;;;;;;3.67;2.40;;;;;;;;;;6206618;23;20410;-94
2023/09/20 11:49:26;;;;;;;3.90;2.40;;;;;;;;;;6228792;23;20367;-94
2023/09/20 11:51:52;;;;;;;2.73;1.83;;;;;;;;;;6202021;23;20383;-93
2023/09/20 11:57:00;;;;;;;3.43;1.70;;;;;;;;;;6236070;22;20449;-92
2023/09/20 11:59:26;;;;;;;2.80;1.60;;;;;;;;;;6232851;23;20702;-92
2023/09/20 12:01:52;;;;;;;3.70;1.90;;;;;;;;;;6207855;23;20389;-92
2023/09/20 12:04:18;;;;;;;3.30;1.70;;;;;;;;;;6207904;23;20461;-94
2023/09/20 12:06:44;;;;;;;2.90;1.60;;;;;;;;;;6208442;23;20417;-94
2023/09/20 12:09:12;;;;;;;2.27;1.47;;;;;;;;;;6207170;23;20400;-93
2023/09/20 12:11:40;;;;;;;3.23;1.70;;;;;;;;;;6208938;23;20393;-92
2023/09/20 12:14:12;;;;;;;2.17;1.40;;;;;;;;;;6207566;23;20450;-94
2023/09/20 12:16:38;;;;;;;2.20;1.33;;;;;;;;;;6210655;22;20807;-94
2023/09/20 12:19:05;;;;;;;2.50;1.60;;;;;;;;;;6208214;23;20390;-94
2023/09/20 12:21:33;;;;;;;2.60;1.60;;;;;;;;;;6197038;23;20384;-95
2023/09/20 12:23:59;;;;;;;2.20;1.73;;;;;;;;;;6173438;23;20665;-94
2023/09/20 12:26:25;;;;;;;2.20;1.60;;;;;;;;;;6146297;23;20432;-94
2023/09/20 12:29:35;;;;;;;3.00;1.80;;;;;;;;;;6147184;23;20384;-95
2023/09/20 12:32:01;;;;;;;4.10;1.30;;;;;;;;;;6172431;23;20396;-94
2023/09/20 12:34:27;;;;;;;2.50;1.93;;;;;;;;;;6148334;23;20407;-95
2023/09/20 12:36:53;;;;;;;3.80;1.53;;;;;;;;;;6146009;23;20494;-94
2023/09/20 12:39:20;;;;;;;2.43;1.70;;;;;;;;;;6148836;23;20399;-95
2023/09/20 12:41:47;;;;;;;2.20;1.50;;;;;;;;;;6147473;23;20352;-92
2023/09/20 12:44:13;;;;;;;1.80;1.50;;;;;;;;;;6146747;23;20372;-93
2023/09/20 12:46:39;;;;;;;2.47;1.30;;;;;;;;;;6149714;23;20804;-93
2023/09/20 12:49:06;;;;;;;3.57;1.83;;;;;;;;;;6145123;23;20384;-93
2023/09/20 12:51:33;;;;;;;3.00;1.33;;;;;;;;;;6150510;23;20372;-93
2023/09/20 12:53:59;;;;;;;2.03;1.30;;;;;;;;;;6176850;23;20458;-93
2023/09/20 12:56:27;;;;;;;1.97;1.57;;;;;;;;;;6178550;23;20450;-93
2023/09/20 12:58:53;;;;;;;3.60;1.60;;;;;;;;;;6180836;23;20379;-93
2023/09/20 13:01:22;;;;;;;2.00;1.40;;;;;;;;;;6176106;23;20379;-92
2023/09/20 13:06:26;;;;;;;2.60;1.70;;;;;;;;;;6239911;22;20445;-96
2023/09/20 13:08:52;;;;;;;2.50;1.60;;;;;;;;;;6178458;23;20418;-94
2023/09/20 13:11:18;;;;;;;2.20;1.40;;;;;;;;;;6175787;23;20395;-95
2023/09/20 13:13:44;;;;;;;2.77;2.00;;;;;;;;;;6174633;23;20477;-95
2023/09/20 13:16:10;;;;;;;2.00;1.53;;;;;;;;;;6142908;23;20448;-94
2023/09/20 13:18:38;;;;;;;2.20;1.40;;;;;;;;;;6115966;23;20422;-95
2023/09/20 13:21:04;;;;;;;2.60;1.47;;;;;;;;;;6118057;23;20488;-96
2023/09/20 13:23:30;;;;;;;2.57;1.93;;;;;;;;;;6114989;23;20385;-93
2023/09/20 13:25:56;;;;;;;3.53;1.77;;;;;;;;;;6118985;23;20381;-95
2023/09/20 13:28:23;;;;;;;2.10;1.60;;;;;;;;;;6115791;23;20410;-93
2023/09/20 13:30:51;;;;;;;2.27;1.47;;;;;;;;;;6115191;23;20381;-93
2023/09/20 13:33:19;;;;;;;3.77;1.47;;;;;;;;;;6141738;23;20373;-96
2023/09/20 13:35:46;;;;;;;3.40;1.30;;;;;;;;;;6122373;23;20432;-93
2023/09/20 13:38:12;;;;;;;2.80;1.60;;;;;;;;;;6112058;23;20389;-93
2023/09/20 13:40:39;;;;;;;3.07;1.43;;;;;;;;;;6114753;23;20443;-94
2023/09/20 13:43:11;;;;;;;5.33;1.50;;;;;;;;;;6113813;23;20873;-95
2023/09/20 13:45:37;;;;;;;2.70;1.50;;;;;;;;;;6143722;23;20360;-94
2023/09/20 13:48:03;;;;;;;1.93;1.57;;;;;;;;;;6136544;23;20369;-96
2023/09/20 13:50:31;;;;;;;1.80;1.40;;;;;;;;;;6116923;23;20392;-94
2023/09/20 13:52:57;;;;;;;2.73;1.57;;;;;;;;;;6115434;23;20388;-94
2023/09/20 13:55:23;;;;;;;4.07;1.40;;;;;;;;;;6118809;23;20459;-95
2023/09/20 13:57:52;;;;;;;4.07;3.67;;;;;;;;;;6114766;23;20388;-95
2023/09/20 14:00:18;;;;;;;2.37;1.80;;;;;;;;;;6118256;23;20384;-95
2023/09/20 14:02:45;;;;;;;4.07;1.77;;;;;;;;;;6116588;23;20440;-94
2023/09/20 14:05:14;;;;;;;2.30;1.27;;;;;;;;;;6119528;23;20387;-94
2023/09/20 14:07:50;;;;;;;2.13;1.20;;;;;;;;;;6117622;23;20400;-94
2023/09/20 14:10:17;;;;;;;2.10;1.50;;;;;;;;;;6121480;23;20439;-94
2023/09/20 14:12:43;;;;;;;2.40;1.67;;;;;;;;;;6114090;23;20393;-94
2023/09/20 14:15:14;;;;;;;2.60;1.50;;;;;;;;;;6141734;23;20849;-94
2023/09/20 14:17:43;;;;;;;2.87;1.50;;;;;;;;;;6115910;23;20437;-94
2023/09/20 14:20:09;;;;;;;2.87;1.13;;;;;;;;;;6171251;23;20431;-94
2023/09/20 14:22:39;;;;;;;2.83;1.70;;;;;;;;;;6171209;23;20720;-95
2023/09/20 14:25:11;;;;;;;2.83;1.50;;;;;;;;;;6174144;23;20399;-94
2023/09/20 14:27:37;;;;;;;2.80;1.60;;;;;;;;;;6169958;23;20801;-93
2023/09/20 14:30:08;;;;;;;2.53;1.53;;;;;;;;;;6172151;23;20423;-96
2023/09/20 14:32:35;;;;;;;1.90;1.60;;;;;;;;;;6170639;23;20419;-94
2023/09/20 14:35:02;;;;;;;2.33;1.40;;;;;;;;;;6176160;23;20403;-94
2023/09/20 14:37:28;;;;;;;3.57;1.83;;;;;;;;;;6171229;23;20419;-94
2023/09/20 14:39:56;;;;;;;3.00;1.83;;;;;;;;;;6179206;23;20375;-94
2023/09/20 14:42:22;;;;;;;1.80;1.30;;;;;;;;;;6174104;23;20399;-93
2023/09/20 14:44:51;;;;;;;2.00;1.20;;;;;;;;;;6172337;23;20396;-94
2023/09/20 14:47:18;;;;;;;2.03;1.30;;;;;;;;;;6147647;23;20363;-92
2023/09/20 14:49:45;;;;;;;2.13;1.50;;;;;;;;;;6174635;23;20454;-93
2023/09/20 14:52:11;;;;;;;1.60;1.10;;;;;;;;;;6113515;23;20401;-95
2023/09/20 14:54:38;;;;;;;1.60;1.20;;;;;;;;;;6088585;23;20842;-95
2023/09/20 14:57:04;;;;;;;2.30;1.37;;;;;;;;;;6113342;23;20799;-95
2023/09/20 14:59:31;;;;;;;4.37;1.30;;;;;;;;;;6089455;23;20394;-94
2023/09/20 15:01:57;;;;;;;2.60;1.53;;;;;;;;;;6091933;23;20378;-95
2023/09/20 15:04:23;;;;;;;1.40;1.00;;;;;;;;;;6087512;23;20695;-93
2023/09/20 15:06:49;;;;;;;3.27;1.37;;;;;;;;;;6089027;23;20819;-95
2023/09/20 15:09:16;;;;;;;2.10;1.50;;;;;;;;;;6087522;23;20385;-95
2023/09/20 15:14:18;;;;;;;2.50;1.40;;;;;;;;;;6173500;23;20820;-94
2023/09/20 15:16:45;;;;;;;2.90;1.50;;;;;;;;;;6150790;23;20419;-92
2023/09/20 15:19:11;;;;;;;1.87;1.53;;;;;;;;;;6147570;23;20403;-93
2023/09/20 15:21:37;;;;;;;2.00;1.33;;;;;;;;;;6150634;23;20384;-93
2023/09/20 15:24:03;;;;;;;2.90;1.47;;;;;;;;;;6148651;23;21062;-93
2023/09/20 15:26:35;;;;;;;1.90;1.30;;;;;;;;;;6147796;23;21095;-92
2023/09/20 15:29:02;;;;;;;2.00;1.50;;;;;;;;;;6147209;23;20376;-93
2023/09/20 15:31:30;;;;;;;2.60;1.20;;;;;;;;;;6150247;23;20395;-93
2023/09/20 15:33:56;;;;;;;1.87;1.33;;;;;;;;;;6151326;23;20455;-94
2023/09/20 15:36:22;;;;;;;1.80;1.20;;;;;;;;;;6152014;23;20440;-95
2023/09/20 15:38:48;;;;;;;1.90;1.50;;;;;;;;;;6148741;23;20435;-93
2023/09/20 15:41:21;;;;;;;2.07;1.30;;;;;;;;;;6150690;23;20379;-95
2023/09/20 15:43:50;;;;;;;3.13;1.20;;;;;;;;;;6149230;23;20372;-94
2023/09/20 15:46:16;;;;;;;3.80;1.80;;;;;;;;;;6147934;23;20399;-95
2023/09/20 15:48:46;;;;;;;2.63;1.50;;;;;;;;;;6152440;23;20411;-93
2023/09/20 15:51:12;;;;;;;2.00;1.13;;;;;;;;;;6146137;23;20377;-93
2023/09/20 15:53:38;;;;;;;2.13;1.50;;;;;;;;;;6174255;23;20376;-93
2023/09/20 15:56:05;;;;;;;2.67;2.13;;;;;;;;;;6146213;23;20461;-93
2023/09/20 15:58:31;;;;;;;2.20;1.50;;;;;;;;;;6150457;23;20376;-93
2023/09/20 16:00:58;;;;;;;2.30;1.60;;;;;;;;;;6148072;23;20459;-93